aviador You're here:

KPRO Decoded Metar

PERRY MUNI in IA, USA
Report Time2017-09-24 11:55:00
UTC Time2017-09-24 12:02:59
Flight Rules vfr VFR
Wind110° at 04 kt
W.Decomp.*RWY 14: 3.4 kt HW 2.1 kt LCW
RWY 04: 1.5 kt HW 3.7 kt RCW
W.Rank110° ranks 15
Current wind is below 110° avg. (7.2)
Visibility9999 m
Phenomena:N/A
Clouds:N/A
CeilingNone
Temp18°C (ISA +5)
Dew Point18°C (100% RH)
QNH1015 hPa
Density Alt1,808 ft
Elevation1,010 ft
Report Wrong Elevation
Raw Report
KPRO 241155Z AUTO 11004KT 7SM CLR 18/18 A2996 RMK AO2 T01770175
10203 20176=

Extra information for KPRO:More info

Metar Taf Metar & Taf Last 4 Metars F.Rules Stats Wind Profile Meteogram Temp Stats Airport Information Weather charts Add Link Nearby VenuesMetar ALERT Operation Metar Decoded Social comments

AIRNAV info for KPRO